sensor_id;sensor_type;location;lat;lon;timestamp;P1;durP1;ratioP1;P2;durP2;ratioP2
17852;SDS011;9052;53.494;14.376;2022-10-04T00:00:47;24.87;;;4.20;;
17852;SDS011;9052;53.494;14.376;2022-10-04T00:03:17;25.33;;;3.17;;
17852;SDS011;9052;53.494;14.376;2022-10-04T00:05:47;20.57;;;3.20;;
17852;SDS011;9052;53.494;14.376;2022-10-04T00:08:21;22.63;;;4.20;;
17852;SDS011;9052;53.494;14.376;2022-10-04T00:10:50;18.77;;;4.17;;
17852;SDS011;9052;53.494;14.376;2022-10-04T00:13:26;21.93;;;3.80;;
17852;SDS011;9052;53.494;14.376;2022-10-04T00:15:54;20.23;;;5.00;;
17852;SDS011;9052;53.494;14.376;2022-10-04T00:18:23;17.97;;;4.50;;
17852;SDS011;9052;53.494;14.376;2022-10-04T00:21:02;13.17;;;3.77;;
17852;SDS011;9052;53.494;14.376;2022-10-04T00:23:42;23.20;;;4.97;;
17852;SDS011;9052;53.494;14.376;2022-10-04T00:26:12;31.23;;;6.00;;
17852;SDS011;9052;53.494;14.376;2022-10-04T00:28:43;13.87;;;4.53;;
17852;SDS011;9052;53.494;14.376;2022-10-04T00:31:14;29.80;;;5.97;;
17852;SDS011;9052;53.494;14.376;2022-10-04T00:33:42;24.07;;;4.03;;
17852;SDS011;9052;53.494;14.376;2022-10-04T00:41:51;27.23;;;5.13;;
17852;SDS011;9052;53.494;14.376;2022-10-04T00:44:20;23.40;;;4.70;;
17852;SDS011;9052;53.494;14.376;2022-10-04T00:46:49;40.93;;;6.30;;
17852;SDS011;9052;53.494;14.376;2022-10-04T00:49:17;25.70;;;5.40;;
17852;SDS011;9052;53.494;14.376;2022-10-04T00:51:47;27.73;;;4.40;;
17852;SDS011;9052;53.494;14.376;2022-10-04T00:54:16;29.37;;;4.70;;
17852;SDS011;9052;53.494;14.376;2022-10-04T00:56:45;32.07;;;4.47;;
17852;SDS011;9052;53.494;14.376;2022-10-04T00:59:28;25.20;;;5.20;;
17852;SDS011;9052;53.494;14.376;2022-10-04T01:01:57;17.53;;;4.40;;
17852;SDS011;9052;53.494;14.376;2022-10-04T01:04:30;24.70;;;5.57;;
17852;SDS011;9052;53.494;14.376;2022-10-04T01:06:59;20.33;;;4.47;;
17852;SDS011;9052;53.494;14.376;2022-10-04T01:09:27;42.10;;;5.10;;
17852;SDS011;9052;53.494;14.376;2022-10-04T01:11:55;41.10;;;5.97;;
17852;SDS011;9052;53.494;14.376;2022-10-04T01:14:29;33.57;;;6.20;;
17852;SDS011;9052;53.494;14.376;2022-10-04T01:17:02;26.13;;;4.70;;
17852;SDS011;9052;53.494;14.376;2022-10-04T01:19:30;25.33;;;5.70;;
17852;SDS011;9052;53.494;14.376;2022-10-04T01:21:58;27.37;;;4.97;;
17852;SDS011;9052;53.494;14.376;2022-10-04T01:24:27;23.60;;;3.73;;
17852;SDS011;9052;53.494;14.376;2022-10-04T01:26:59;35.43;;;4.63;;
17852;SDS011;9052;53.494;14.376;2022-10-04T01:29:27;25.80;;;5.00;;
17852;SDS011;9052;53.494;14.376;2022-10-04T01:31:54;34.80;;;4.20;;
17852;SDS011;9052;53.494;14.376;2022-10-04T01:34:22;23.77;;;4.53;;
17852;SDS011;9052;53.494;14.376;2022-10-04T01:36:49;28.27;;;4.43;;
17852;SDS011;9052;53.494;14.376;2022-10-04T01:39:17;19.73;;;4.80;;
17852;SDS011;9052;53.494;14.376;2022-10-04T01:41:47;34.53;;;4.50;;
17852;SDS011;9052;53.494;14.376;2022-10-04T01:44:16;34.27;;;6.43;;
17852;SDS011;9052;53.494;14.376;2022-10-04T01:46:44;32.93;;;5.50;;
17852;SDS011;9052;53.494;14.376;2022-10-04T01:49:13;39.83;;;5.93;;
17852;SDS011;9052;53.494;14.376;2022-10-04T01:51:42;21.20;;;3.97;;
17852;SDS011;9052;53.494;14.376;2022-10-04T01:54:11;25.67;;;4.00;;
17852;SDS011;9052;53.494;14.376;2022-10-04T01:56:39;32.60;;;5.80;;
17852;SDS011;9052;53.494;14.376;2022-10-04T01:59:13;27.70;;;6.07;;
17852;SDS011;9052;53.494;14.376;2022-10-04T02:01:42;26.97;;;7.17;;
17852;SDS011;9052;53.494;14.376;2022-10-04T02:04:13;46.23;;;6.97;;
17852;SDS011;9052;53.494;14.376;2022-10-04T02:06:40;32.87;;;6.23;;
17852;SDS011;9052;53.494;14.376;2022-10-04T02:09:09;26.27;;;6.40;;
17852;SDS011;9052;53.494;14.376;2022-10-04T02:11:37;13.23;;;4.73;;
17852;SDS011;9052;53.494;14.376;2022-10-04T02:14:08;35.97;;;5.53;;
17852;SDS011;9052;53.494;14.376;2022-10-04T02:16:40;17.70;;;5.50;;
17852;SDS011;9052;53.494;14.376;2022-10-04T02:19:08;17.47;;;5.20;;
17852;SDS011;9052;53.494;14.376;2022-10-04T02:21:36;25.13;;;4.60;;
17852;SDS011;9052;53.494;14.376;2022-10-04T02:24:03;20.97;;;4.50;;
17852;SDS011;9052;53.494;14.376;2022-10-04T02:26:30;39.83;;;5.70;;
17852;SDS011;9052;53.494;14.376;2022-10-04T02:28:57;28.47;;;4.93;;
17852;SDS011;9052;53.494;14.376;2022-10-04T02:31:24;24.23;;;3.70;;
17852;SDS011;9052;53.494;14.376;2022-10-04T02:34:10;30.80;;;5.33;;
17852;SDS011;9052;53.494;14.376;2022-10-04T02:36:36;19.10;;;4.33;;
17852;SDS011;9052;53.494;14.376;2022-10-04T02:39:06;43.30;;;6.07;;
17852;SDS011;9052;53.494;14.376;2022-10-04T02:41:36;31.27;;;4.60;;
17852;SDS011;9052;53.494;14.376;2022-10-04T02:44:07;22.50;;;4.97;;
17852;SDS011;9052;53.494;14.376;2022-10-04T02:46:40;37.63;;;4.70;;
17852;SDS011;9052;53.494;14.376;2022-10-04T02:49:12;28.53;;;4.30;;
17852;SDS011;9052;53.494;14.376;2022-10-04T02:51:42;23.37;;;4.80;;
17852;SDS011;9052;53.494;14.376;2022-10-04T02:54:18;32.83;;;6.20;;
17852;SDS011;9052;53.494;14.376;2022-10-04T02:56:49;21.43;;;5.40;;
17852;SDS011;9052;53.494;14.376;2022-10-04T02:59:17;24.70;;;4.57;;
17852;SDS011;9052;53.494;14.376;2022-10-04T03:01:47;29.17;;;7.10;;
17852;SDS011;9052;53.494;14.376;2022-10-04T03:04:16;47.07;;;6.43;;
17852;SDS011;9052;53.494;14.376;2022-10-04T03:06:45;36.87;;;5.67;;
17852;SDS011;9052;53.494;14.376;2022-10-04T03:09:12;29.27;;;5.47;;
17852;SDS011;9052;53.494;14.376;2022-10-04T03:11:39;21.93;;;5.27;;
17852;SDS011;9052;53.494;14.376;2022-10-04T03:14:07;35.33;;;6.50;;
17852;SDS011;9052;53.494;14.376;2022-10-04T03:16:35;39.13;;;7.60;;
17852;SDS011;9052;53.494;14.376;2022-10-04T03:19:02;33.90;;;6.87;;
17852;SDS011;9052;53.494;14.376;2022-10-04T03:21:31;25.30;;;6.73;;
17852;SDS011;9052;53.494;14.376;2022-10-04T03:23:59;35.63;;;8.70;;
17852;SDS011;9052;53.494;14.376;2022-10-04T03:26:27;52.33;;;8.50;;
17852;SDS011;9052;53.494;14.376;2022-10-04T03:28:55;44.40;;;7.10;;
17852;SDS011;9052;53.494;14.376;2022-10-04T03:31:22;38.40;;;8.70;;
17852;SDS011;9052;53.494;14.376;2022-10-04T03:33:50;28.00;;;6.50;;
17852;SDS011;9052;53.494;14.376;2022-10-04T03:36:19;44.87;;;7.30;;
17852;SDS011;9052;53.494;14.376;2022-10-04T03:38:47;32.53;;;7.10;;
17852;SDS011;9052;53.494;14.376;2022-10-04T03:41:14;32.70;;;7.60;;
17852;SDS011;9052;53.494;14.376;2022-10-04T03:43:43;38.97;;;7.20;;
17852;SDS011;9052;53.494;14.376;2022-10-04T03:46:10;35.83;;;7.67;;
17852;SDS011;9052;53.494;14.376;2022-10-04T03:48:39;24.60;;;7.97;;
17852;SDS011;9052;53.494;14.376;2022-10-04T03:51:06;40.97;;;6.80;;
17852;SDS011;9052;53.494;14.376;2022-10-04T03:53:36;24.83;;;5.97;;
17852;SDS011;9052;53.494;14.376;2022-10-04T03:56:10;51.80;;;8.37;;
17852;SDS011;9052;53.494;14.376;2022-10-04T03:58:37;42.63;;;8.03;;
17852;SDS011;9052;53.494;14.376;2022-10-04T04:01:09;32.50;;;7.73;;
17852;SDS011;9052;53.494;14.376;2022-10-04T04:03:42;45.00;;;7.00;;
17852;SDS011;9052;53.494;14.376;2022-10-04T04:06:13;39.93;;;6.90;;
17852;SDS011;9052;53.494;14.376;2022-10-04T04:08:41;18.77;;;6.23;;
17852;SDS011;9052;53.494;14.376;2022-10-04T04:11:14;13.10;;;5.10;;
17852;SDS011;9052;53.494;14.376;2022-10-04T04:13:44;20.50;;;5.50;;
17852;SDS011;9052;53.494;14.376;2022-10-04T04:16:13;27.93;;;6.27;;
17852;SDS011;9052;53.494;14.376;2022-10-04T04:18:40;26.27;;;6.50;;
17852;SDS011;9052;53.494;14.376;2022-10-04T04:21:08;25.93;;;6.03;;
17852;SDS011;9052;53.494;14.376;2022-10-04T04:23:38;33.73;;;6.57;;
17852;SDS011;9052;53.494;14.376;2022-10-04T04:26:12;28.53;;;6.00;;
17852;SDS011;9052;53.494;14.376;2022-10-04T04:28:41;20.60;;;5.83;;
17852;SDS011;9052;53.494;14.376;2022-10-04T04:31:13;20.47;;;5.73;;
17852;SDS011;9052;53.494;14.376;2022-10-04T04:33:43;19.63;;;5.23;;
17852;SDS011;9052;53.494;14.376;2022-10-04T04:36:11;35.27;;;6.40;;
17852;SDS011;9052;53.494;14.376;2022-10-04T04:38:39;21.33;;;5.60;;
17852;SDS011;9052;53.494;14.376;2022-10-04T04:41:29;13.50;;;5.00;;
17852;SDS011;9052;53.494;14.376;2022-10-04T04:43:58;34.50;;;6.07;;
17852;SDS011;9052;53.494;14.376;2022-10-04T04:46:25;16.97;;;4.90;;
17852;SDS011;9052;53.494;14.376;2022-10-04T04:48:54;25.80;;;6.47;;
17852;SDS011;9052;53.494;14.376;2022-10-04T04:51:24;40.93;;;6.33;;
17852;SDS011;9052;53.494;14.376;2022-10-04T04:53:50;39.67;;;6.10;;
17852;SDS011;9052;53.494;14.376;2022-10-04T04:56:19;31.37;;;6.37;;
17852;SDS011;9052;53.494;14.376;2022-10-04T04:58:49;28.13;;;5.37;;
17852;SDS011;9052;53.494;14.376;2022-10-04T05:01:17;37.00;;;6.07;;
17852;SDS011;9052;53.494;14.376;2022-10-04T05:03:58;23.97;;;6.07;;
17852;SDS011;9052;53.494;14.376;2022-10-04T05:06:25;20.43;;;4.97;;
17852;SDS011;9052;53.494;14.376;2022-10-04T05:08:52;22.07;;;5.17;;
17852;SDS011;9052;53.494;14.376;2022-10-04T05:11:19;27.07;;;5.20;;
17852;SDS011;9052;53.494;14.376;2022-10-04T05:13:46;27.53;;;6.00;;
17852;SDS011;9052;53.494;14.376;2022-10-04T05:16:17;17.20;;;5.63;;
17852;SDS011;9052;53.494;14.376;2022-10-04T05:18:47;43.27;;;5.80;;
17852;SDS011;9052;53.494;14.376;2022-10-04T05:21:21;23.60;;;6.33;;
17852;SDS011;9052;53.494;14.376;2022-10-04T05:23:49;28.73;;;5.83;;
17852;SDS011;9052;53.494;14.376;2022-10-04T05:26:18;41.17;;;7.03;;
17852;SDS011;9052;53.494;14.376;2022-10-04T05:28:49;28.50;;;6.10;;
17852;SDS011;9052;53.494;14.376;2022-10-04T05:33:59;34.27;;;5.40;;
17852;SDS011;9052;53.494;14.376;2022-10-04T05:39:15;27.77;;;5.43;;
17852;SDS011;9052;53.494;14.376;2022-10-04T05:41:47;23.57;;;5.40;;
17852;SDS011;9052;53.494;14.376;2022-10-04T05:44:19;12.50;;;4.50;;
17852;SDS011;9052;53.494;14.376;2022-10-04T05:46:48;23.90;;;5.43;;
17852;SDS011;9052;53.494;14.376;2022-10-04T05:49:16;25.63;;;5.93;;
17852;SDS011;9052;53.494;14.376;2022-10-04T05:51:47;50.47;;;5.73;;
17852;SDS011;9052;53.494;14.376;2022-10-04T05:54:18;35.93;;;6.60;;
17852;SDS011;9052;53.494;14.376;2022-10-04T05:59:35;20.07;;;5.20;;
17852;SDS011;9052;53.494;14.376;2022-10-04T06:02:07;35.70;;;6.50;;
17852;SDS011;9052;53.494;14.376;2022-10-04T06:04:42;24.63;;;5.40;;
17852;SDS011;9052;53.494;14.376;2022-10-04T06:07:14;24.30;;;5.87;;
17852;SDS011;9052;53.494;14.376;2022-10-04T06:09:54;27.20;;;5.10;;
17852;SDS011;9052;53.494;14.376;2022-10-04T06:12:25;38.83;;;6.23;;
17852;SDS011;9052;53.494;14.376;2022-10-04T06:17:55;30.50;;;6.20;;
17852;SDS011;9052;53.494;14.376;2022-10-04T06:23:12;35.97;;;7.43;;
17852;SDS011;9052;53.494;14.376;2022-10-04T06:25:42;36.70;;;6.23;;
17852;SDS011;9052;53.494;14.376;2022-10-04T06:28:12;29.43;;;6.80;;
17852;SDS011;9052;53.494;14.376;2022-10-04T06:30:47;26.30;;;5.97;;
17852;SDS011;9052;53.494;14.376;2022-10-04T06:33:26;37.93;;;6.53;;
17852;SDS011;9052;53.494;14.376;2022-10-04T06:36:04;39.43;;;6.33;;
17852;SDS011;9052;53.494;14.376;2022-10-04T06:41:30;28.80;;;6.57;;
17852;SDS011;9052;53.494;14.376;2022-10-04T06:44:09;22.23;;;5.63;;
17852;SDS011;9052;53.494;14.376;2022-10-04T06:46:39;19.10;;;4.90;;
17852;SDS011;9052;53.494;14.376;2022-10-04T06:49:15;21.80;;;5.27;;
17852;SDS011;9052;53.494;14.376;2022-10-04T06:51:51;29.50;;;5.80;;
17852;SDS011;9052;53.494;14.376;2022-10-04T06:54:26;21.13;;;5.53;;
17852;SDS011;9052;53.494;14.376;2022-10-04T06:59:51;31.00;;;6.17;;
17852;SDS011;9052;53.494;14.376;2022-10-04T07:02:22;28.13;;;5.17;;
17852;SDS011;9052;53.494;14.376;2022-10-04T07:04:53;31.30;;;8.27;;
17852;SDS011;9052;53.494;14.376;2022-10-04T07:07:22;25.73;;;6.00;;
17852;SDS011;9052;53.494;14.376;2022-10-04T07:09:51;28.33;;;5.60;;
17852;SDS011;9052;53.494;14.376;2022-10-04T07:12:20;31.40;;;5.93;;
17852;SDS011;9052;53.494;14.376;2022-10-04T07:14:47;18.13;;;4.87;;
17852;SDS011;9052;53.494;14.376;2022-10-04T07:17:18;12.93;;;4.47;;
17852;SDS011;9052;53.494;14.376;2022-10-04T07:19:47;17.83;;;4.60;;
17852;SDS011;9052;53.494;14.376;2022-10-04T07:22:15;13.33;;;4.40;;
17852;SDS011;9052;53.494;14.376;2022-10-04T07:25:02;10.07;;;3.83;;
17852;SDS011;9052;53.494;14.376;2022-10-04T07:27:31;20.73;;;5.07;;
17852;SDS011;9052;53.494;14.376;2022-10-04T07:30:00;25.60;;;4.50;;
17852;SDS011;9052;53.494;14.376;2022-10-04T07:32:30;8.13;;;3.03;;
17852;SDS011;9052;53.494;14.376;2022-10-04T07:34:58;16.23;;;3.93;;
17852;SDS011;9052;53.494;14.376;2022-10-04T07:37:28;18.90;;;3.77;;
17852;SDS011;9052;53.494;14.376;2022-10-04T07:39:57;14.90;;;3.40;;
17852;SDS011;9052;53.494;14.376;2022-10-04T07:42:25;14.63;;;3.30;;
17852;SDS011;9052;53.494;14.376;2022-10-04T07:45:01;19.60;;;4.10;;
17852;SDS011;9052;53.494;14.376;2022-10-04T07:47:30;14.73;;;3.70;;
17852;SDS011;9052;53.494;14.376;2022-10-04T07:49:57;16.40;;;3.80;;
17852;SDS011;9052;53.494;14.376;2022-10-04T07:52:30;16.80;;;4.30;;
17852;SDS011;9052;53.494;14.376;2022-10-04T07:55:05;10.53;;;2.77;;
17852;SDS011;9052;53.494;14.376;2022-10-04T07:57:34;6.90;;;2.90;;
17852;SDS011;9052;53.494;14.376;2022-10-04T08:00:09;12.07;;;3.73;;
17852;SDS011;9052;53.494;14.376;2022-10-04T08:02:40;9.93;;;2.80;;
17852;SDS011;9052;53.494;14.376;2022-10-04T08:05:11;13.30;;;2.50;;
17852;SDS011;9052;53.494;14.376;2022-10-04T08:07:43;13.50;;;2.73;;
17852;SDS011;9052;53.494;14.376;2022-10-04T08:10:15;7.90;;;2.50;;
17852;SDS011;9052;53.494;14.376;2022-10-04T08:12:46;11.13;;;2.40;;
17852;SDS011;9052;53.494;14.376;2022-10-04T08:15:31;15.33;;;3.40;;
17852;SDS011;9052;53.494;14.376;2022-10-04T08:18:03;11.47;;;2.63;;
17852;SDS011;9052;53.494;14.376;2022-10-04T08:20:35;7.00;;;2.20;;
17852;SDS011;9052;53.494;14.376;2022-10-04T08:23:06;8.40;;;2.77;;
17852;SDS011;9052;53.494;14.376;2022-10-04T08:25:37;13.97;;;3.50;;
17852;SDS011;9052;53.494;14.376;2022-10-04T08:28:10;14.30;;;3.10;;
17852;SDS011;9052;53.494;14.376;2022-10-04T08:31:02;12.20;;;3.60;;
17852;SDS011;9052;53.494;14.376;2022-10-04T08:33:40;18.77;;;2.57;;
17852;SDS011;9052;53.494;14.376;2022-10-04T08:36:13;9.93;;;2.97;;
17852;SDS011;9052;53.494;14.376;2022-10-04T08:38:45;16.23;;;3.40;;
17852;SDS011;9052;53.494;14.376;2022-10-04T08:47:03;10.17;;;2.60;;
17852;SDS011;9052;53.494;14.376;2022-10-04T08:52:31;13.70;;;3.00;;
17852;SDS011;9052;53.494;14.376;2022-10-04T08:55:14;14.97;;;2.83;;
17852;SDS011;9052;53.494;14.376;2022-10-04T08:57:54;13.97;;;2.00;;
17852;SDS011;9052;53.494;14.376;2022-10-04T09:00:26;10.13;;;2.80;;
17852;SDS011;9052;53.494;14.376;2022-10-04T09:03:11;8.30;;;2.50;;
17852;SDS011;9052;53.494;14.376;2022-10-04T09:05:53;18.87;;;2.27;;
17852;SDS011;9052;53.494;14.376;2022-10-04T09:08:29;8.70;;;2.50;;
17852;SDS011;9052;53.494;14.376;2022-10-04T09:11:18;7.47;;;2.60;;
17852;SDS011;9052;53.494;14.376;2022-10-04T09:13:53;12.40;;;2.37;;
17852;SDS011;9052;53.494;14.376;2022-10-04T09:16:25;11.70;;;2.30;;
17852;SDS011;9052;53.494;14.376;2022-10-04T09:21:48;9.50;;;2.20;;
17852;SDS011;9052;53.494;14.376;2022-10-04T09:27:17;13.53;;;2.53;;
17852;SDS011;9052;53.494;14.376;2022-10-04T09:29:59;19.57;;;6.20;;
17852;SDS011;9052;53.494;14.376;2022-10-04T09:32:36;14.83;;;2.90;;
17852;SDS011;9052;53.494;14.376;2022-10-04T09:35:12;9.00;;;3.93;;
17852;SDS011;9052;53.494;14.376;2022-10-04T09:40:34;9.23;;;3.50;;
17852;SDS011;9052;53.494;14.376;2022-10-04T09:43:21;6.43;;;1.97;;
17852;SDS011;9052;53.494;14.376;2022-10-04T09:45:57;5.70;;;1.97;;
17852;SDS011;9052;53.494;14.376;2022-10-04T09:48:31;6.47;;;2.87;;
17852;SDS011;9052;53.494;14.376;2022-10-04T09:51:08;12.53;;;2.23;;
17852;SDS011;9052;53.494;14.376;2022-10-04T09:53:40;13.73;;;1.40;;
17852;SDS011;9052;53.494;14.376;2022-10-04T09:56:14;9.70;;;2.30;;
17852;SDS011;9052;53.494;14.376;2022-10-04T09:58:55;9.40;;;2.63;;
17852;SDS011;9052;53.494;14.376;2022-10-04T10:01:26;17.30;;;2.53;;
17852;SDS011;9052;53.494;14.376;2022-10-04T10:04:04;6.13;;;1.77;;
17852;SDS011;9052;53.494;14.376;2022-10-04T10:06:47;6.40;;;1.90;;
17852;SDS011;9052;53.494;14.376;2022-10-04T10:09:25;9.60;;;2.13;;
17852;SDS011;9052;53.494;14.376;2022-10-04T10:12:11;10.97;;;2.70;;
17852;SDS011;9052;53.494;14.376;2022-10-04T10:15:06;6.20;;;2.20;;
17852;SDS011;9052;53.494;14.376;2022-10-04T10:17:42;2.83;;;1.30;;
17852;SDS011;9052;53.494;14.376;2022-10-04T10:20:25;3.93;;;1.40;;
17852;SDS011;9052;53.494;14.376;2022-10-04T10:22:57;6.37;;;1.73;;
17852;SDS011;9052;53.494;14.376;2022-10-04T10:25:30;12.93;;;2.30;;
17852;SDS011;9052;53.494;14.376;2022-10-04T10:28:05;4.77;;;1.87;;
17852;SDS011;9052;53.494;14.376;2022-10-04T10:30:44;7.30;;;1.87;;
17852;SDS011;9052;53.494;14.376;2022-10-04T10:38:42;8.30;;;2.60;;
17852;SDS011;9052;53.494;14.376;2022-10-04T10:41:18;3.40;;;1.50;;
17852;SDS011;9052;53.494;14.376;2022-10-04T10:44:02;14.03;;;3.20;;
17852;SDS011;9052;53.494;14.376;2022-10-04T10:46:45;9.20;;;1.90;;
17852;SDS011;9052;53.494;14.376;2022-10-04T10:49:23;7.53;;;2.00;;
17852;SDS011;9052;53.494;14.376;2022-10-04T10:52:16;11.23;;;2.77;;
17852;SDS011;9052;53.494;14.376;2022-10-04T10:57:42;6.13;;;2.00;;
17852;SDS011;9052;53.494;14.376;2022-10-04T11:00:18;12.63;;;2.80;;
17852;SDS011;9052;53.494;14.376;2022-10-04T11:05:43;11.77;;;3.13;;
17852;SDS011;9052;53.494;14.376;2022-10-04T11:08:25;22.77;;;2.70;;
17852;SDS011;9052;53.494;14.376;2022-10-04T11:11:03;12.90;;;2.93;;
17852;SDS011;9052;53.494;14.376;2022-10-04T11:14:01;17.57;;;2.90;;
17852;SDS011;9052;53.494;14.376;2022-10-04T11:22:21;8.53;;;2.63;;
17852;SDS011;9052;53.494;14.376;2022-10-04T11:27:41;6.57;;;1.90;;
17852;SDS011;9052;53.494;14.376;2022-10-04T11:30:16;9.50;;;2.90;;
17852;SDS011;9052;53.494;14.376;2022-10-04T11:32:56;5.33;;;2.27;;
17852;SDS011;9052;53.494;14.376;2022-10-04T11:38:31;4.83;;;2.27;;
17852;SDS011;9052;53.494;14.376;2022-10-04T11:41:06;9.00;;;2.50;;
17852;SDS011;9052;53.494;14.376;2022-10-04T11:43:44;10.60;;;2.70;;
17852;SDS011;9052;53.494;14.376;2022-10-04T11:46:19;6.33;;;3.10;;
17852;SDS011;9052;53.494;14.376;2022-10-04T11:48:52;11.10;;;2.70;;
17852;SDS011;9052;53.494;14.376;2022-10-04T11:51:41;7.33;;;2.80;;
17852;SDS011;9052;53.494;14.376;2022-10-04T11:54:27;7.57;;;2.50;;
17852;SDS011;9052;53.494;14.376;2022-10-04T11:57:06;11.17;;;3.93;;
17852;SDS011;9052;53.494;14.376;2022-10-04T11:59:40;9.87;;;2.37;;
17852;SDS011;9052;53.494;14.376;2022-10-04T12:05:03;9.60;;;2.70;;
17852;SDS011;9052;53.494;14.376;2022-10-04T12:07:41;13.23;;;2.40;;
17852;SDS011;9052;53.494;14.376;2022-10-04T12:10:17;8.40;;;2.67;;
17852;SDS011;9052;53.494;14.376;2022-10-04T12:15:44;7.57;;;2.03;;
17852;SDS011;9052;53.494;14.376;2022-10-04T12:18:29;3.80;;;2.00;;
17852;SDS011;9052;53.494;14.376;2022-10-04T12:26:36;8.30;;;2.30;;
17852;SDS011;9052;53.494;14.376;2022-10-04T12:31:53;6.20;;;2.73;;
17852;SDS011;9052;53.494;14.376;2022-10-04T12:34:24;6.27;;;1.70;;
17852;SDS011;9052;53.494;14.376;2022-10-04T12:36:57;3.90;;;1.50;;
17852;SDS011;9052;53.494;14.376;2022-10-04T12:39:37;5.60;;;2.00;;
17852;SDS011;9052;53.494;14.376;2022-10-04T12:42:10;8.07;;;2.80;;
17852;SDS011;9052;53.494;14.376;2022-10-04T12:44:43;5.90;;;2.20;;
17852;SDS011;9052;53.494;14.376;2022-10-04T12:50:07;11.17;;;2.00;;
17852;SDS011;9052;53.494;14.376;2022-10-04T12:52:39;11.53;;;2.30;;
17852;SDS011;9052;53.494;14.376;2022-10-04T12:55:13;5.20;;;1.47;;
17852;SDS011;9052;53.494;14.376;2022-10-04T12:57:45;6.27;;;1.50;;
17852;SDS011;9052;53.494;14.376;2022-10-04T13:00:15;6.57;;;1.83;;
17852;SDS011;9052;53.494;14.376;2022-10-04T13:02:50;7.93;;;1.53;;
17852;SDS011;9052;53.494;14.376;2022-10-04T13:05:20;5.10;;;1.30;;
17852;SDS011;9052;53.494;14.376;2022-10-04T13:07:58;5.40;;;2.07;;
17852;SDS011;9052;53.494;14.376;2022-10-04T13:15:56;6.13;;;1.80;;
17852;SDS011;9052;53.494;14.376;2022-10-04T13:18:30;10.27;;;1.87;;
17852;SDS011;9052;53.494;14.376;2022-10-04T13:21:01;3.70;;;1.73;;
17852;SDS011;9052;53.494;14.376;2022-10-04T13:23:37;2.63;;;2.13;;
17852;SDS011;9052;53.494;14.376;2022-10-04T13:26:11;7.13;;;2.00;;
17852;SDS011;9052;53.494;14.376;2022-10-04T13:28:43;4.30;;;1.40;;
17852;SDS011;9052;53.494;14.376;2022-10-04T13:31:15;2.90;;;1.13;;
17852;SDS011;9052;53.494;14.376;2022-10-04T13:33:49;5.33;;;1.50;;
17852;SDS011;9052;53.494;14.376;2022-10-04T13:36:19;9.03;;;2.03;;
17852;SDS011;9052;53.494;14.376;2022-10-04T13:41:38;7.77;;;2.40;;
17852;SDS011;9052;53.494;14.376;2022-10-04T13:44:15;7.80;;;2.73;;
17852;SDS011;9052;53.494;14.376;2022-10-04T13:49:35;6.50;;;1.57;;
17852;SDS011;9052;53.494;14.376;2022-10-04T13:52:09;7.13;;;1.53;;
17852;SDS011;9052;53.494;14.376;2022-10-04T13:54:58;3.67;;;1.57;;
17852;SDS011;9052;53.494;14.376;2022-10-04T13:57:50;4.37;;;1.80;;
17852;SDS011;9052;53.494;14.376;2022-10-04T14:00:19;8.97;;;1.70;;
17852;SDS011;9052;53.494;14.376;2022-10-04T14:03:02;4.20;;;1.80;;
17852;SDS011;9052;53.494;14.376;2022-10-04T14:05:44;2.83;;;1.50;;
17852;SDS011;9052;53.494;14.376;2022-10-04T14:08:28;6.43;;;1.70;;
17852;SDS011;9052;53.494;14.376;2022-10-04T14:11:06;8.30;;;1.57;;
17852;SDS011;9052;53.494;14.376;2022-10-04T14:25:24;3.57;;;1.67;;
17852;SDS011;9052;53.494;14.376;2022-10-04T14:30:48;1.60;;;1.37;;
17852;SDS011;9052;53.494;14.376;2022-10-04T14:36:08;12.63;;;1.50;;
17852;SDS011;9052;53.494;14.376;2022-10-04T14:38:45;6.70;;;1.80;;
17852;SDS011;9052;53.494;14.376;2022-10-04T14:44:15;4.37;;;1.77;;
17852;SDS011;9052;53.494;14.376;2022-10-04T14:46:49;4.47;;;2.00;;
17852;SDS011;9052;53.494;14.376;2022-10-04T14:49:19;10.33;;;2.37;;
17852;SDS011;9052;53.494;14.376;2022-10-04T14:52:08;5.07;;;1.73;;
17852;SDS011;9052;53.494;14.376;2022-10-04T14:54:45;7.60;;;3.00;;
17852;SDS011;9052;53.494;14.376;2022-10-04T14:57:16;10.37;;;2.97;;
17852;SDS011;9052;53.494;14.376;2022-10-04T15:02:41;5.50;;;3.00;;
17852;SDS011;9052;53.494;14.376;2022-10-04T15:05:27;6.00;;;3.10;;
17852;SDS011;9052;53.494;14.376;2022-10-04T15:07:58;6.70;;;2.00;;
17852;SDS011;9052;53.494;14.376;2022-10-04T15:10:37;8.53;;;2.50;;
17852;SDS011;9052;53.494;14.376;2022-10-04T15:13:17;12.47;;;4.50;;
17852;SDS011;9052;53.494;14.376;2022-10-04T15:15:56;8.90;;;3.00;;
17852;SDS011;9052;53.494;14.376;2022-10-04T15:18:29;16.87;;;3.70;;
17852;SDS011;9052;53.494;14.376;2022-10-04T15:20:57;16.30;;;3.60;;
17852;SDS011;9052;53.494;14.376;2022-10-04T15:23:28;30.47;;;14.73;;
17852;SDS011;9052;53.494;14.376;2022-10-04T15:25:58;12.93;;;7.30;;
17852;SDS011;9052;53.494;14.376;2022-10-04T15:28:39;14.60;;;3.80;;
17852;SDS011;9052;53.494;14.376;2022-10-04T15:31:10;8.73;;;4.23;;
17852;SDS011;9052;53.494;14.376;2022-10-04T15:33:40;13.63;;;3.07;;
17852;SDS011;9052;53.494;14.376;2022-10-04T15:36:10;5.57;;;2.10;;
17852;SDS011;9052;53.494;14.376;2022-10-04T15:38:44;7.77;;;2.20;;
17852;SDS011;9052;53.494;14.376;2022-10-04T15:41:15;5.67;;;2.50;;
17852;SDS011;9052;53.494;14.376;2022-10-04T15:43:56;4.53;;;1.90;;
17852;SDS011;9052;53.494;14.376;2022-10-04T15:46:36;12.53;;;1.77;;
17852;SDS011;9052;53.494;14.376;2022-10-04T15:52:07;17.70;;;4.60;;
17852;SDS011;9052;53.494;14.376;2022-10-04T15:54:43;15.20;;;8.30;;
17852;SDS011;9052;53.494;14.376;2022-10-04T15:57:26;18.83;;;12.27;;
17852;SDS011;9052;53.494;14.376;2022-10-04T15:59:55;11.67;;;6.50;;
17852;SDS011;9052;53.494;14.376;2022-10-04T16:02:43;7.93;;;4.30;;
17852;SDS011;9052;53.494;14.376;2022-10-04T16:05:23;12.63;;;4.40;;
17852;SDS011;9052;53.494;14.376;2022-10-04T16:07:55;19.07;;;8.47;;
17852;SDS011;9052;53.494;14.376;2022-10-04T16:10:26;17.87;;;5.63;;
17852;SDS011;9052;53.494;14.376;2022-10-04T16:13:17;12.13;;;3.90;;
17852;SDS011;9052;53.494;14.376;2022-10-04T16:15:52;16.67;;;3.67;;
17852;SDS011;9052;53.494;14.376;2022-10-04T16:18:39;13.03;;;4.90;;
17852;SDS011;9052;53.494;14.376;2022-10-04T16:21:14;10.40;;;6.37;;
17852;SDS011;9052;53.494;14.376;2022-10-04T16:23:46;10.57;;;4.03;;
17852;SDS011;9052;53.494;14.376;2022-10-04T16:26:14;20.40;;;7.20;;
17852;SDS011;9052;53.494;14.376;2022-10-04T16:29:06;39.57;;;23.27;;
17852;SDS011;9052;53.494;14.376;2022-10-04T16:37:11;28.57;;;15.57;;
17852;SDS011;9052;53.494;14.376;2022-10-04T16:39:48;50.30;;;21.63;;
17852;SDS011;9052;53.494;14.376;2022-10-04T16:42:26;51.37;;;27.73;;
17852;SDS011;9052;53.494;14.376;2022-10-04T16:44:58;32.27;;;20.30;;
17852;SDS011;9052;53.494;14.376;2022-10-04T16:47:28;13.53;;;7.33;;
17852;SDS011;9052;53.494;14.376;2022-10-04T16:49:57;16.60;;;10.30;;
17852;SDS011;9052;53.494;14.376;2022-10-04T16:52:37;21.83;;;12.73;;
17852;SDS011;9052;53.494;14.376;2022-10-04T17:00:40;15.57;;;6.33;;
17852;SDS011;9052;53.494;14.376;2022-10-04T17:03:10;11.03;;;5.57;;
17852;SDS011;9052;53.494;14.376;2022-10-04T17:05:52;11.50;;;4.53;;
17852;SDS011;9052;53.494;14.376;2022-10-04T17:08:21;11.00;;;5.03;;
17852;SDS011;9052;53.494;14.376;2022-10-04T17:13:35;13.27;;;6.00;;
17852;SDS011;9052;53.494;14.376;2022-10-04T17:16:10;12.47;;;6.90;;
17852;SDS011;9052;53.494;14.376;2022-10-04T17:18:40;14.23;;;6.43;;
17852;SDS011;9052;53.494;14.376;2022-10-04T17:21:11;12.73;;;5.70;;
17852;SDS011;9052;53.494;14.376;2022-10-04T17:23:44;10.57;;;6.60;;
17852;SDS011;9052;53.494;14.376;2022-10-04T17:26:20;15.80;;;7.67;;